sensor_id;sensor_type;location;lat;lon;timestamp;pressure;altitude;pressure_sealevel;temperature;humidity
34586;BME280;20816;50.950;11.108;2023-05-09T00:02:05;98835.84;;;12.22;73.53
34586;BME280;20816;50.950;11.108;2023-05-09T00:04:33;98846.28;;;12.25;73.67
34586;BME280;20816;50.950;11.108;2023-05-09T00:07:00;98837.56;;;12.21;73.55
34586;BME280;20816;50.950;11.108;2023-05-09T00:09:27;98831.38;;;12.24;73.85
34586;BME280;20816;50.950;11.108;2023-05-09T00:11:54;98835.84;;;12.22;73.56
34586;BME280;20816;50.950;11.108;2023-05-09T00:14:20;98832.44;;;12.17;73.51
34586;BME280;20816;50.950;11.108;2023-05-09T00:16:47;98837.78;;;12.14;74.11
34586;BME280;20816;50.950;11.108;2023-05-09T00:19:14;98830.06;;;12.06;73.82
34586;BME280;20816;50.950;11.108;2023-05-09T00:21:41;98835.16;;;12.12;73.91
34586;BME280;20816;50.950;11.108;2023-05-09T00:24:07;98833.50;;;12.10;73.86
34586;BME280;20816;50.950;11.108;2023-05-09T00:26:34;98831.06;;;12.00;73.91
34586;BME280;20816;50.950;11.108;2023-05-09T00:29:00;98824.72;;;12.09;73.45
34586;BME280;20816;50.950;11.108;2023-05-09T00:31:27;98832.56;;;12.11;73.74
34586;BME280;20816;50.950;11.108;2023-05-09T00:33:54;98825.59;;;12.10;73.50
34586;BME280;20816;50.950;11.108;2023-05-09T00:36:20;98824.75;;;12.07;73.66
34586;BME280;20816;50.950;11.108;2023-05-09T00:38:47;98813.38;;;12.07;73.41
34586;BME280;20816;50.950;11.108;2023-05-09T00:41:17;98816.06;;;12.04;73.81
34586;BME280;20816;50.950;11.108;2023-05-09T00:43:44;98808.28;;;11.99;73.79
34586;BME280;20816;50.950;11.108;2023-05-09T00:46:11;98818.00;;;11.96;73.30
34586;BME280;20816;50.950;11.108;2023-05-09T00:48:37;98811.81;;;11.97;73.24
34586;BME280;20816;50.950;11.108;2023-05-09T00:51:04;98814.28;;;12.04;73.67
34586;BME280;20816;50.950;11.108;2023-05-09T00:53:31;98807.13;;;12.10;72.73
34586;BME280;20816;50.950;11.108;2023-05-09T00:55:59;98807.31;;;12.02;73.31
34586;BME280;20816;50.950;11.108;2023-05-09T00:58:26;98803.72;;;12.06;73.18
34586;BME280;20816;50.950;11.108;2023-05-09T01:00:52;98795.94;;;12.01;72.97
34586;BME280;20816;50.950;11.108;2023-05-09T01:03:19;98790.75;;;11.98;73.52
34586;BME280;20816;50.950;11.108;2023-05-09T01:05:57;98789.94;;;11.95;73.69
34586;BME280;20816;50.950;11.108;2023-05-09T01:08:40;98782.28;;;11.84;73.40
34586;BME280;20816;50.950;11.108;2023-05-09T01:11:21;98784.22;;;11.76;74.13
34586;BME280;20816;50.950;11.108;2023-05-09T01:14:11;98778.84;;;11.82;74.08
34586;BME280;20816;50.950;11.108;2023-05-09T01:16:46;98778.09;;;11.75;73.94
34586;BME280;20816;50.950;11.108;2023-05-09T01:19:26;98780.63;;;11.80;74.08
34586;BME280;20816;50.950;11.108;2023-05-09T01:22:04;98774.50;;;11.78;73.77
34586;BME280;20816;50.950;11.108;2023-05-09T01:24:46;98778.00;;;11.78;73.91
34586;BME280;20816;50.950;11.108;2023-05-09T01:27:36;98777.34;;;11.69;74.46
34586;BME280;20816;50.950;11.108;2023-05-09T01:30:03;98776.44;;;11.70;74.55
34586;BME280;20816;50.950;11.108;2023-05-09T01:32:34;98772.31;;;11.60;74.75
34586;BME280;20816;50.950;11.108;2023-05-09T01:35:04;98765.06;;;11.69;73.46
34586;BME280;20816;50.950;11.108;2023-05-09T01:37:35;98771.38;;;11.62;73.83
34586;BME280;20816;50.950;11.108;2023-05-09T01:40:12;98769.53;;;11.66;74.23
34586;BME280;20816;50.950;11.108;2023-05-09T01:42:51;98765.97;;;11.68;73.62
34586;BME280;20816;50.950;11.108;2023-05-09T01:45:21;98761.47;;;11.72;73.40
34586;BME280;20816;50.950;11.108;2023-05-09T01:47:49;98767.72;;;11.68;73.77
34586;BME280;20816;50.950;11.108;2023-05-09T01:50:17;98768.69;;;11.64;73.59
34586;BME280;20816;50.950;11.108;2023-05-09T01:52:49;98765.38;;;11.57;73.70
34586;BME280;20816;50.950;11.108;2023-05-09T01:55:18;98769.00;;;11.51;74.06
34586;BME280;20816;50.950;11.108;2023-05-09T01:57:47;98771.63;;;11.51;73.68
34586;BME280;20816;50.950;11.108;2023-05-09T02:00:15;98775.91;;;11.56;73.90
34586;BME280;20816;50.950;11.108;2023-05-09T02:02:42;98777.19;;;11.38;74.26
34586;BME280;20816;50.950;11.108;2023-05-09T02:05:10;98772.94;;;11.32;75.07
34586;BME280;20816;50.950;11.108;2023-05-09T02:07:39;98773.28;;;11.17;75.53
34586;BME280;20816;50.950;11.108;2023-05-09T02:10:08;98777.38;;;11.29;74.46
34586;BME280;20816;50.950;11.108;2023-05-09T02:12:36;98775.78;;;11.21;74.77
34586;BME280;20816;50.950;11.108;2023-05-09T02:15:04;98767.06;;;11.19;75.35
34586;BME280;20816;50.950;11.108;2023-05-09T02:17:31;98769.88;;;11.12;75.01
34586;BME280;20816;50.950;11.108;2023-05-09T02:19:58;98769.13;;;11.05;75.23
34586;BME280;20816;50.950;11.108;2023-05-09T02:22:25;98778.03;;;11.00;75.78
34586;BME280;20816;50.950;11.108;2023-05-09T02:24:52;98779.38;;;10.74;76.54
34586;BME280;20816;50.950;11.108;2023-05-09T02:27:19;98774.13;;;10.74;77.01
34586;BME280;20816;50.950;11.108;2023-05-09T02:29:48;98775.28;;;10.61;77.48
34586;BME280;20816;50.950;11.108;2023-05-09T02:32:22;98782.47;;;10.51;78.49
34586;BME280;20816;50.950;11.108;2023-05-09T02:34:51;98782.59;;;10.45;78.98
34586;BME280;20816;50.950;11.108;2023-05-09T02:37:19;98775.34;;;10.56;77.79
34586;BME280;20816;50.950;11.108;2023-05-09T02:39:46;98773.03;;;10.39;78.63
34586;BME280;20816;50.950;11.108;2023-05-09T02:42:18;98775.00;;;10.28;78.78
34586;BME280;20816;50.950;11.108;2023-05-09T02:44:46;98771.31;;;10.38;78.83
34586;BME280;20816;50.950;11.108;2023-05-09T02:47:12;98769.25;;;10.56;77.17
34586;BME280;20816;50.950;11.108;2023-05-09T02:49:39;98763.28;;;10.46;77.30
34586;BME280;20816;50.950;11.108;2023-05-09T02:52:06;98762.38;;;10.49;76.88
34586;BME280;20816;50.950;11.108;2023-05-09T02:54:32;98755.38;;;10.48;77.24
34586;BME280;20816;50.950;11.108;2023-05-09T02:56:59;98752.78;;;10.46;76.79
34586;BME280;20816;50.950;11.108;2023-05-09T02:59:25;98757.88;;;10.55;76.69
34586;BME280;20816;50.950;11.108;2023-05-09T03:01:52;98750.13;;;10.48;77.17
34586;BME280;20816;50.950;11.108;2023-05-09T03:04:19;98744.97;;;10.42;77.58
34586;BME280;20816;50.950;11.108;2023-05-09T03:06:46;98748.41;;;10.47;76.88
34586;BME280;20816;50.950;11.108;2023-05-09T03:09:13;98753.91;;;10.34;77.58
34586;BME280;20816;50.950;11.108;2023-05-09T03:11:39;98749.16;;;10.53;76.24
34586;BME280;20816;50.950;11.108;2023-05-09T03:14:06;98741.47;;;10.43;77.24
34586;BME280;20816;50.950;11.108;2023-05-09T03:16:33;98755.44;;;10.45;76.37
34586;BME280;20816;50.950;11.108;2023-05-09T03:19:00;98752.59;;;10.55;76.28
34586;BME280;20816;50.950;11.108;2023-05-09T03:21:27;98755.88;;;10.20;78.72
34586;BME280;20816;50.950;11.108;2023-05-09T03:23:54;98755.97;;;10.14;78.17
34586;BME280;20816;50.950;11.108;2023-05-09T03:26:20;98752.56;;;10.07;78.76
34586;BME280;20816;50.950;11.108;2023-05-09T03:28:47;98754.63;;;9.90;79.90
34586;BME280;20816;50.950;11.108;2023-05-09T03:31:14;98751.19;;;9.87;79.80
34586;BME280;20816;50.950;11.108;2023-05-09T03:33:41;98751.38;;;9.74;80.65
34586;BME280;20816;50.950;11.108;2023-05-09T03:36:08;98744.53;;;9.64;81.69
34586;BME280;20816;50.950;11.108;2023-05-09T03:38:35;98754.22;;;9.62;80.80
34586;BME280;20816;50.950;11.108;2023-05-09T03:41:01;98748.00;;;9.66;80.97
34586;BME280;20816;50.950;11.108;2023-05-09T03:43:29;98750.69;;;9.63;81.14
34586;BME280;20816;50.950;11.108;2023-05-09T03:45:56;98754.34;;;9.53;81.65
34586;BME280;20816;50.950;11.108;2023-05-09T03:48:23;98751.69;;;9.56;81.70
34586;BME280;20816;50.950;11.108;2023-05-09T03:50:50;98747.34;;;9.52;81.83
34586;BME280;20816;50.950;11.108;2023-05-09T03:53:17;98747.34;;;9.52;82.11
34586;BME280;20816;50.950;11.108;2023-05-09T03:55:43;98743.00;;;9.51;82.51
34586;BME280;20816;50.950;11.108;2023-05-09T03:58:10;98747.53;;;9.41;83.19
34586;BME280;20816;50.950;11.108;2023-05-09T04:00:37;98741.47;;;9.38;83.94
34586;BME280;20816;50.950;11.108;2023-05-09T04:03:05;98740.59;;;9.36;83.83
34586;BME280;20816;50.950;11.108;2023-05-09T04:05:32;98738.09;;;9.28;84.66
34586;BME280;20816;50.950;11.108;2023-05-09T04:08:01;98738.09;;;9.26;84.60
34586;BME280;20816;50.950;11.108;2023-05-09T04:10:29;98744.25;;;9.25;85.05
34586;BME280;20816;50.950;11.108;2023-05-09T04:12:56;98738.09;;;9.28;84.58
34586;BME280;20816;50.950;11.108;2023-05-09T04:15:23;98742.38;;;9.34;84.35
34586;BME280;20816;50.950;11.108;2023-05-09T04:17:50;98748.47;;;9.36;84.41
34586;BME280;20816;50.950;11.108;2023-05-09T04:20:17;98730.97;;;9.38;84.18
34586;BME280;20816;50.950;11.108;2023-05-09T04:22:44;98730.78;;;9.50;83.30
34586;BME280;20816;50.950;11.108;2023-05-09T04:25:12;98741.09;;;9.62;83.25
34586;BME280;20816;50.950;11.108;2023-05-09T04:27:40;98734.00;;;9.67;84.03
34586;BME280;20816;50.950;11.108;2023-05-09T04:30:07;98739.94;;;9.78;82.69
34586;BME280;20816;50.950;11.108;2023-05-09T04:32:34;98736.25;;;9.90;82.53
34586;BME280;20816;50.950;11.108;2023-05-09T04:35:02;98738.69;;;10.01;81.93
34586;BME280;20816;50.950;11.108;2023-05-09T04:37:29;98739.28;;;10.18;80.95
34586;BME280;20816;50.950;11.108;2023-05-09T04:39:58;98736.47;;;10.29;81.83
34586;BME280;20816;50.950;11.108;2023-05-09T04:42:24;98738.00;;;10.41;82.45
34586;BME280;20816;50.950;11.108;2023-05-09T04:44:51;98741.41;;;10.46;82.05
34586;BME280;20816;50.950;11.108;2023-05-09T04:47:18;98739.44;;;10.57;80.15
34586;BME280;20816;50.950;11.108;2023-05-09T04:49:45;98729.44;;;10.74;79.22
34586;BME280;20816;50.950;11.108;2023-05-09T04:52:12;98733.41;;;10.95;79.38
34586;BME280;20816;50.950;11.108;2023-05-09T04:54:38;98728.38;;;11.23;79.50
34586;BME280;20816;50.950;11.108;2023-05-09T04:57:05;98729.81;;;11.38;77.57
34586;BME280;20816;50.950;11.108;2023-05-09T04:59:43;98733.59;;;11.63;77.13
34586;BME280;20816;50.950;11.108;2023-05-09T05:02:10;98733.84;;;11.91;76.57
34586;BME280;20816;50.950;11.108;2023-05-09T05:04:37;98728.66;;;12.21;75.17
34586;BME280;20816;50.950;11.108;2023-05-09T05:07:04;98727.13;;;12.46;74.79
34586;BME280;20816;50.950;11.108;2023-05-09T05:09:31;98723.72;;;12.74;73.91
34586;BME280;20816;50.950;11.108;2023-05-09T05:11:57;98722.09;;;12.99;72.84
34586;BME280;20816;50.950;11.108;2023-05-09T05:14:28;98728.38;;;13.25;72.68
34586;BME280;20816;50.950;11.108;2023-05-09T05:16:55;98716.63;;;13.35;71.70
34586;BME280;20816;50.950;11.108;2023-05-09T05:19:21;98718.84;;;13.49;71.05
34586;BME280;20816;50.950;11.108;2023-05-09T05:21:48;98712.22;;;13.63;70.57
34586;BME280;20816;50.950;11.108;2023-05-09T05:24:15;98713.25;;;13.86;70.00
34586;BME280;20816;50.950;11.108;2023-05-09T05:26:42;98709.66;;;14.13;69.02
34586;BME280;20816;50.950;11.108;2023-05-09T05:29:09;98701.53;;;14.19;69.82
34586;BME280;20816;50.950;11.108;2023-05-09T05:31:36;98700.56;;;14.47;68.90
34586;BME280;20816;50.950;11.108;2023-05-09T05:34:03;98699.81;;;14.68;67.46
34586;BME280;20816;50.950;11.108;2023-05-09T05:36:30;98698.91;;;15.14;66.88
34586;BME280;20816;50.950;11.108;2023-05-09T05:38:57;98691.88;;;14.92;65.99
34586;BME280;20816;50.950;11.108;2023-05-09T05:41:24;98699.84;;;15.13;65.63
34586;BME280;20816;50.950;11.108;2023-05-09T05:43:52;98692.38;;;15.01;65.67
34586;BME280;20816;50.950;11.108;2023-05-09T05:46:20;98687.72;;;15.30;65.37
34586;BME280;20816;50.950;11.108;2023-05-09T05:48:46;98686.75;;;15.54;65.18
34586;BME280;20816;50.950;11.108;2023-05-09T05:51:13;98688.19;;;15.41;64.58
34586;BME280;20816;50.950;11.108;2023-05-09T05:53:41;98681.56;;;15.29;65.54
34586;BME280;20816;50.950;11.108;2023-05-09T05:56:07;98679.56;;;15.58;65.41
34586;BME280;20816;50.950;11.108;2023-05-09T05:58:34;98676.69;;;15.64;65.21
34586;BME280;20816;50.950;11.108;2023-05-09T06:01:01;98670.09;;;15.74;64.22
34586;BME280;20816;50.950;11.108;2023-05-09T06:03:28;98665.31;;;15.82;64.48
34586;BME280;20816;50.950;11.108;2023-05-09T06:05:55;98671.31;;;16.08;64.72
34586;BME280;20816;50.950;11.108;2023-05-09T06:08:22;98671.06;;;16.14;64.77
34586;BME280;20816;50.950;11.108;2023-05-09T06:10:48;98664.19;;;15.88;64.93
34586;BME280;20816;50.950;11.108;2023-05-09T06:13:15;98654.81;;;16.21;65.19
34586;BME280;20816;50.950;11.108;2023-05-09T06:15:42;98654.00;;;16.40;64.97
34586;BME280;20816;50.950;11.108;2023-05-09T06:18:09;98652.19;;;16.40;64.53
34586;BME280;20816;50.950;11.108;2023-05-09T06:20:36;98651.72;;;16.71;64.11
34586;BME280;20816;50.950;11.108;2023-05-09T06:23:02;98646.25;;;16.93;63.87
34586;BME280;20816;50.950;11.108;2023-05-09T06:25:29;98643.25;;;16.82;63.57
34586;BME280;20816;50.950;11.108;2023-05-09T06:27:56;98642.88;;;16.71;63.42
34586;BME280;20816;50.950;11.108;2023-05-09T06:30:23;98636.50;;;16.75;64.80
34586;BME280;20816;50.950;11.108;2023-05-09T06:32:53;98638.00;;;16.99;64.13
34586;BME280;20816;50.950;11.108;2023-05-09T06:35:20;98640.66;;;16.99;63.31
34586;BME280;20816;50.950;11.108;2023-05-09T06:37:48;98633.44;;;17.39;63.33
34586;BME280;20816;50.950;11.108;2023-05-09T06:40:15;98630.19;;;17.51;62.95
34586;BME280;20816;50.950;11.108;2023-05-09T06:42:42;98634.66;;;17.68;62.48
34586;BME280;20816;50.950;11.108;2023-05-09T06:45:09;98626.25;;;17.58;62.00
34586;BME280;20816;50.950;11.108;2023-05-09T06:47:36;98632.59;;;17.92;62.47
34586;BME280;20816;50.950;11.108;2023-05-09T06:50:04;98621.41;;;18.03;61.25
34586;BME280;20816;50.950;11.108;2023-05-09T06:52:30;98627.25;;;18.27;61.92
34586;BME280;20816;50.950;11.108;2023-05-09T06:54:57;98630.59;;;18.30;61.30
34586;BME280;20816;50.950;11.108;2023-05-09T06:57:23;98628.16;;;18.43;61.21
34586;BME280;20816;50.950;11.108;2023-05-09T06:59:50;98619.03;;;18.47;60.73
34586;BME280;20816;50.950;11.108;2023-05-09T07:02:17;98614.97;;;18.57;61.60
34586;BME280;20816;50.950;11.108;2023-05-09T07:04:43;98609.25;;;18.81;61.15
34586;BME280;20816;50.950;11.108;2023-05-09T07:07:10;98604.97;;;18.94;59.83
34586;BME280;20816;50.950;11.108;2023-05-09T07:09:37;98609.38;;;18.95;60.91
34586;BME280;20816;50.950;11.108;2023-05-09T07:12:04;98594.06;;;18.83;60.24
34586;BME280;20816;50.950;11.108;2023-05-09T07:14:31;98602.97;;;19.29;60.79
34586;BME280;20816;50.950;11.108;2023-05-09T07:16:58;98595.38;;;19.53;59.45
34586;BME280;20816;50.950;11.108;2023-05-09T07:19:44;98594.78;;;19.94;59.77
34586;BME280;20816;50.950;11.108;2023-05-09T07:22:13;98587.16;;;20.02;58.36
34586;BME280;20816;50.950;11.108;2023-05-09T07:24:40;98592.81;;;20.11;59.30
34586;BME280;20816;50.950;11.108;2023-05-09T07:27:06;98587.66;;;20.08;59.38
34586;BME280;20816;50.950;11.108;2023-05-09T07:29:33;98585.78;;;20.39;59.66
34586;BME280;20816;50.950;11.108;2023-05-09T07:32:00;98587.13;;;20.32;58.91
34586;BME280;20816;50.950;11.108;2023-05-09T07:34:27;98592.72;;;20.27;58.83
34586;BME280;20816;50.950;11.108;2023-05-09T07:36:54;98593.50;;;20.29;57.32
34586;BME280;20816;50.950;11.108;2023-05-09T07:39:20;98588.94;;;20.31;57.75
34586;BME280;20816;50.950;11.108;2023-05-09T07:41:47;98588.22;;;19.99;58.70
34586;BME280;20816;50.950;11.108;2023-05-09T07:44:14;98583.38;;;20.34;58.97
34586;BME280;20816;50.950;11.108;2023-05-09T07:46:41;98579.81;;;20.64;58.26
34586;BME280;20816;50.950;11.108;2023-05-09T07:49:08;98558.91;;;20.56;56.89
34586;BME280;20816;50.950;11.108;2023-05-09T07:51:35;98570.25;;;20.60;57.86
34586;BME280;20816;50.950;11.108;2023-05-09T07:54:02;98559.19;;;20.80;57.63
34586;BME280;20816;50.950;11.108;2023-05-09T07:56:31;98555.19;;;20.59;58.13
34586;BME280;20816;50.950;11.108;2023-05-09T07:58:58;98550.28;;;20.94;57.95
34586;BME280;20816;50.950;11.108;2023-05-09T08:01:25;98549.59;;;21.17;57.02
34586;BME280;20816;50.950;11.108;2023-05-09T08:03:52;98549.78;;;21.55;56.99
34586;BME280;20816;50.950;11.108;2023-05-09T08:06:19;98543.53;;;21.95;56.06
34586;BME280;20816;50.950;11.108;2023-05-09T08:08:45;98542.47;;;21.85;55.74
34586;BME280;20816;50.950;11.108;2023-05-09T08:11:12;98540.75;;;21.96;55.65
34586;BME280;20816;50.950;11.108;2023-05-09T08:13:39;98536.06;;;22.13;56.00
34586;BME280;20816;50.950;11.108;2023-05-09T08:16:05;98526.81;;;22.04;55.84
34586;BME280;20816;50.950;11.108;2023-05-09T08:18:32;98531.31;;;22.03;56.20
34586;BME280;20816;50.950;11.108;2023-05-09T08:20:59;98519.34;;;22.22;55.52
34586;BME280;20816;50.950;11.108;2023-05-09T08:23:26;98518.97;;;22.64;56.16
34586;BME280;20816;50.950;11.108;2023-05-09T08:25:55;98519.72;;;22.66;54.56
34586;BME280;20816;50.950;11.108;2023-05-09T08:28:22;98523.50;;;23.01;55.63
34586;BME280;20816;50.950;11.108;2023-05-09T08:30:54;98512.81;;;23.12;53.42
34586;BME280;20816;50.950;11.108;2023-05-09T08:33:22;98525.50;;;22.73;54.48
34586;BME280;20816;50.950;11.108;2023-05-09T08:35:53;98522.16;;;22.70;53.77
34586;BME280;20816;50.950;11.108;2023-05-09T08:38:20;98515.13;;;23.05;54.89
34586;BME280;20816;50.950;11.108;2023-05-09T08:40:47;98507.72;;;23.44;54.29
34586;BME280;20816;50.950;11.108;2023-05-09T08:43:15;98505.06;;;23.79;53.58
34586;BME280;20816;50.950;11.108;2023-05-09T08:45:53;98498.41;;;24.29;53.31
34586;BME280;20816;50.950;11.108;2023-05-09T08:48:23;98496.28;;;24.89;52.56
34586;BME280;20816;50.950;11.108;2023-05-09T08:50:51;98500.38;;;24.50;49.93
34586;BME280;20816;50.950;11.108;2023-05-09T08:53:19;98490.13;;;24.55;51.25
34586;BME280;20816;50.950;11.108;2023-05-09T08:55:50;98493.78;;;24.20;52.30
34586;BME280;20816;50.950;11.108;2023-05-09T08:58:18;98484.88;;;24.42;51.03
34586;BME280;20816;50.950;11.108;2023-05-09T09:00:46;98484.63;;;24.56;51.38
34586;BME280;20816;50.950;11.108;2023-05-09T09:03:13;98475.91;;;24.86;51.34
34586;BME280;20816;50.950;11.108;2023-05-09T09:05:41;98477.09;;;25.37;49.43
34586;BME280;20816;50.950;11.108;2023-05-09T09:08:09;98476.94;;;26.22;48.94
34586;BME280;20816;50.950;11.108;2023-05-09T09:10:39;98467.16;;;26.51;47.48
34586;BME280;20816;50.950;11.108;2023-05-09T09:13:08;98458.84;;;26.74;47.70
34586;BME280;20816;50.950;11.108;2023-05-09T09:15:36;98456.72;;;26.77;46.99
34586;BME280;20816;50.950;11.108;2023-05-09T09:18:08;98456.63;;;26.89;46.38
34586;BME280;20816;50.950;11.108;2023-05-09T09:20:39;98453.41;;;27.24;46.65
34586;BME280;20816;50.950;11.108;2023-05-09T09:23:07;98454.13;;;26.57;46.21
34586;BME280;20816;50.950;11.108;2023-05-09T09:25:38;98449.16;;;25.91;47.36
34586;BME280;20816;50.950;11.108;2023-05-09T09:28:05;98442.56;;;25.63;48.63
34586;BME280;20816;50.950;11.108;2023-05-09T09:30:32;98447.94;;;26.05;46.99
34586;BME280;20816;50.950;11.108;2023-05-09T09:32:58;98435.81;;;26.20;47.65
34586;BME280;20816;50.950;11.108;2023-05-09T09:35:26;98435.66;;;26.21;46.79
34586;BME280;20816;50.950;11.108;2023-05-09T09:37:56;98433.38;;;25.86;47.45
34586;BME280;20816;50.950;11.108;2023-05-09T09:40:27;98440.69;;;25.75;47.03
34586;BME280;20816;50.950;11.108;2023-05-09T09:42:53;98439.53;;;25.98;45.63
34586;BME280;20816;50.950;11.108;2023-05-09T09:45:20;98433.41;;;26.57;46.22
34586;BME280;20816;50.950;11.108;2023-05-09T09:47:48;98441.13;;;26.91;45.13
34586;BME280;20816;50.950;11.108;2023-05-09T09:50:19;98424.28;;;27.18;45.45
34586;BME280;20816;50.950;11.108;2023-05-09T09:52:50;98422.97;;;27.51;46.02
34586;BME280;20816;50.950;11.108;2023-05-09T09:55:18;98415.13;;;28.14;44.10
34586;BME280;20816;50.950;11.108;2023-05-09T09:57:46;98417.31;;;28.10;44.91
34586;BME280;20816;50.950;11.108;2023-05-09T10:00:15;98408.75;;;27.68;44.90
34586;BME280;20816;50.950;11.108;2023-05-09T10:02:50;98406.38;;;28.02;42.86
34586;BME280;20816;50.950;11.108;2023-05-09T10:05:25;98399.81;;;28.05;42.61
34586;BME280;20816;50.950;11.108;2023-05-09T10:07:57;98387.38;;;28.49;43.61
34586;BME280;20816;50.950;11.108;2023-05-09T10:10:28;98400.00;;;28.31;42.55
34586;BME280;20816;50.950;11.108;2023-05-09T10:12:58;98392.41;;;27.50;44.37
34586;BME280;20816;50.950;11.108;2023-05-09T10:15:27;98387.75;;;26.75;43.43
34586;BME280;20816;50.950;11.108;2023-05-09T10:18:08;98392.22;;;26.45;44.04
34586;BME280;20816;50.950;11.108;2023-05-09T10:20:36;98387.16;;;26.71;43.87
34586;BME280;20816;50.950;11.108;2023-05-09T10:23:07;98384.91;;;26.96;43.74
34586;BME280;20816;50.950;11.108;2023-05-09T10:25:38;98380.91;;;26.71;44.11
34586;BME280;20816;50.950;11.108;2023-05-09T10:28:11;98375.72;;;27.08;44.17
34586;BME280;20816;50.950;11.108;2023-05-09T10:30:49;98371.25;;;27.36;43.55
34586;BME280;20816;50.950;11.108;2023-05-09T10:33:25;98355.63;;;27.40;44.34
34586;BME280;20816;50.950;11.108;2023-05-09T10:35:57;98352.72;;;27.80;42.89
34586;BME280;20816;50.950;11.108;2023-05-09T10:38:26;98355.63;;;27.40;43.38
34586;BME280;20816;50.950;11.108;2023-05-09T10:40:54;98351.50;;;27.45;42.76
34586;BME280;20816;50.950;11.108;2023-05-09T10:43:22;98347.88;;;27.74;43.32
34586;BME280;20816;50.950;11.108;2023-05-09T10:45:50;98356.63;;;27.48;45.32
34586;BME280;20816;50.950;11.108;2023-05-09T10:48:18;98346.13;;;27.45;44.23
34586;BME280;20816;50.950;11.108;2023-05-09T10:50:45;98335.44;;;27.53;43.42
34586;BME280;20816;50.950;11.108;2023-05-09T10:53:12;98329.84;;;26.89;44.82
34586;BME280;20816;50.950;11.108;2023-05-09T10:58:31;98326.69;;;26.83;44.95
34586;BME280;20816;50.950;11.108;2023-05-09T11:01:03;98318.97;;;27.47;43.49
34586;BME280;20816;50.950;11.108;2023-05-09T11:03:53;98307.97;;;27.58;44.38
34586;BME280;20816;50.950;11.108;2023-05-09T11:09:35;98287.09;;;27.70;42.87
34586;BME280;20816;50.950;11.108;2023-05-09T11:12:10;98286.09;;;27.51;43.14
34586;BME280;20816;50.950;11.108;2023-05-09T11:14:44;98279.78;;;27.33;43.96
34586;BME280;20816;50.950;11.108;2023-05-09T11:22:30;98258.84;;;26.69;44.09
34586;BME280;20816;50.950;11.108;2023-05-09T11:25:15;98260.81;;;26.96;45.87
34586;BME280;20816;50.950;11.108;2023-05-09T11:27:47;98250.63;;;26.80;45.36
34586;BME280;20816;50.950;11.108;2023-05-09T11:30:18;98246.94;;;26.62;45.56
34586;BME280;20816;50.950;11.108;2023-05-09T11:32:54;98225.09;;;27.31;44.22
34586;BME280;20816;50.950;11.108;2023-05-09T11:35:22;98230.06;;;27.73;44.85
34586;BME280;20816;50.950;11.108;2023-05-09T11:38:01;98232.72;;;26.89;44.56
34586;BME280;20816;50.950;11.108;2023-05-09T11:40:30;98229.75;;;26.63;44.64
34586;BME280;20816;50.950;11.108;2023-05-09T11:42:58;98224.81;;;26.58;47.42
34586;BME280;20816;50.950;11.108;2023-05-09T11:45:30;98228.78;;;26.44;46.20
34586;BME280;20816;50.950;11.108;2023-05-09T11:47:57;98214.88;;;26.59;46.76
34586;BME280;20816;50.950;11.108;2023-05-09T11:50:25;98221.38;;;26.75;44.91
34586;BME280;20816;50.950;11.108;2023-05-09T11:52:52;98211.03;;;27.27;44.68
34586;BME280;20816;50.950;11.108;2023-05-09T11:55:20;98212.28;;;26.86;45.26
34586;BME280;20816;50.950;11.108;2023-05-09T11:57:52;98209.19;;;26.81;44.99
34586;BME280;20816;50.950;11.108;2023-05-09T12:00:21;98200.34;;;26.98;45.82
34586;BME280;20816;50.950;11.108;2023-05-09T12:02:49;98193.88;;;27.19;46.14
34586;BME280;20816;50.950;11.108;2023-05-09T12:05:18;98192.97;;;26.91;45.70
34586;BME280;20816;50.950;11.108;2023-05-09T12:07:48;98187.59;;;26.81;44.95
34586;BME280;20816;50.950;11.108;2023-05-09T12:10:21;98192.03;;;26.34;46.12
34586;BME280;20816;50.950;11.108;2023-05-09T12:12:52;98191.06;;;26.15;46.04
34586;BME280;20816;50.950;11.108;2023-05-09T12:15:22;98187.66;;;26.42;46.13
34586;BME280;20816;50.950;11.108;2023-05-09T12:18:03;98177.13;;;26.59;45.46
34586;BME280;20816;50.950;11.108;2023-05-09T12:23:09;98171.75;;;26.30;44.45
34586;BME280;20816;50.950;11.108;2023-05-09T12:25:36;98165.78;;;26.26;45.52
34586;BME280;20816;50.950;11.108;2023-05-09T12:28:03;98158.16;;;26.41;45.40
34586;BME280;20816;50.950;11.108;2023-05-09T12:30:31;98153.41;;;26.62;45.01
34586;BME280;20816;50.950;11.108;2023-05-09T12:32:58;98157.28;;;26.21;46.29
34586;BME280;20816;50.950;11.108;2023-05-09T12:35:26;98151.63;;;25.95;45.78
34586;BME280;20816;50.950;11.108;2023-05-09T12:37:54;98154.72;;;26.19;45.55
34586;BME280;20816;50.950;11.108;2023-05-09T12:40:22;98150.50;;;26.17;47.44
34586;BME280;20816;50.950;11.108;2023-05-09T12:42:50;98155.16;;;26.44;44.96
34586;BME280;20816;50.950;11.108;2023-05-09T12:45:19;98143.16;;;26.85;45.82
34586;BME280;20816;50.950;11.108;2023-05-09T12:47:50;98137.41;;;26.22;46.48
34586;BME280;20816;50.950;11.108;2023-05-09T12:50:17;98139.00;;;26.05;46.04
34586;BME280;20816;50.950;11.108;2023-05-09T12:52:49;98141.00;;;25.74;45.11
34586;BME280;20816;50.950;11.108;2023-05-09T12:55:29;98133.34;;;25.98;45.76
34586;BME280;20816;50.950;11.108;2023-05-09T13:00:25;98126.50;;;26.14;45.33
34586;BME280;20816;50.950;11.108;2023-05-09T13:02:51;98119.00;;;25.98;46.00
34586;BME280;20816;50.950;11.108;2023-05-09T13:05:20;98128.00;;;25.49;47.08
34586;BME280;20816;50.950;11.108;2023-05-09T13:07:49;98122.88;;;25.36;46.06
34586;BME280;20816;50.950;11.108;2023-05-09T13:10:26;98129.88;;;25.58;48.08
34586;BME280;20816;50.950;11.108;2023-05-09T13:12:56;98119.34;;;25.35;47.55
34586;BME280;20816;50.950;11.108;2023-05-09T13:15:23;98122.94;;;25.15;45.49